aviador You're here:

KNAK Decoded Metar

ANNAPOLIS/NAVAL in MD, USA
Report Time2018-05-21 23:54:00
UTC Time2018-05-22 00:16:01
Flight Rules vfr VFR
Wind130° at 06 kt
W.Rank130° ranks 2
Current wind is below 130° avg. (7.7)
Visibility9999 m
Phenomena:N/A
Clouds:N/A
Expected CloudBase > 2,000 ft AGL from Temp-Dew spread
CeilingNone
Temp24°C (ISA +9)
Dew Point19°C (74% RH)
QNH1020 hPa
Density Alt1,109 ft
Elevation7 ft
Report Wrong Elevation
Raw Report
KNAK 212354Z AUTO 13006KT 10SM CLR 24/19 A3013 RMK AO2 SLP206
T02440189 10261 20244 55001=

Extra information for KNAK:More info

Metar Taf Metar & Taf Last 4 Metars F.Rules Stats Wind Profile Meteogram Temp Stats Airport Information Weather charts Add Link Nearby VenuesMetar ALERT Operation Metar Decoded Social comments

AIRNAV info for KNAK